Gibson, Australia
Current Conditions -  °F | °C
As of 8:00 AM on Monday 26 Jan 2015 (Local Time) from YESP Reporting Station
Broken Clouds Broken Clouds  
Wind Chill: 66°   Ceiling: 3300
Heat Index: 66°   Visibility: 6mi
Dew Point: 48°   Wind: 13mph
Humidity: 52%   Direction: 80°E
Pressure: 30.15"   Gusts: NA
Location:  33.64°S, 121.81°E
Report Text: YESP 260000Z AUTO 08011KT 9999 // BKN033 19/09 Q1021
Loading
Personal Weather Stations






























Interactive Weather Map New forecast layout! Learn more

10-Day Weather Forecast

Advertisements
Track Severe Weather on mobile